createdAt,value
2022-12-23T00:00:56.157Z,0.20
2022-12-23T00:03:26.170Z,0.10
2022-12-23T00:05:57.066Z,0.20
2022-12-23T00:08:27.618Z,0.13
2022-12-23T00:10:58.776Z,0.23
2022-12-23T00:13:44.655Z,0.10
2022-12-23T00:16:16.822Z,0.10
2022-12-23T00:18:45.829Z,0.30
2022-12-23T00:21:18.429Z,0.30
2022-12-23T00:23:50.198Z,0.40
2022-12-23T00:26:22.377Z,0.27
2022-12-23T00:28:51.996Z,0.20
2022-12-23T00:31:21.317Z,0.27
2022-12-23T00:33:53.710Z,0.20
2022-12-23T00:36:27.571Z,0.30
2022-12-23T00:39:15.324Z,0.30
2022-12-23T00:42:01.380Z,0.37
2022-12-23T00:44:30.677Z,0.07
2022-12-23T00:47:00.083Z,0.50
2022-12-23T00:49:43.416Z,0.30
2022-12-23T00:52:15.674Z,0.10
2022-12-23T00:54:45.479Z,0.20
2022-12-23T00:57:14.138Z,0.70
2022-12-23T00:59:43.634Z,0.37
2022-12-23T01:02:31.020Z,0.80
2022-12-23T01:05:17.682Z,0.90
2022-12-23T01:07:47.955Z,0.83
2022-12-23T01:10:16.582Z,0.70
2022-12-23T01:12:45.269Z,0.23
2022-12-23T01:15:14.409Z,0.37
2022-12-23T01:17:42.824Z,0.20
2022-12-23T01:20:13.416Z,0.10
2022-12-23T01:22:41.904Z,0.17
2022-12-23T01:25:12.422Z,0.20
2022-12-23T01:27:41.069Z,0.20
2022-12-23T01:30:11.278Z,0.30
2022-12-23T01:32:39.719Z,0.10
2022-12-23T01:35:08.992Z,0.20
2022-12-23T01:37:37.488Z,0.10
2022-12-23T01:40:07.779Z,0.50
2022-12-23T01:42:47.569Z,0.30
2022-12-23T01:45:22.578Z,0.10
2022-12-23T01:47:57.020Z,0.20
2022-12-23T01:50:32.213Z,0.10
2022-12-23T01:53:08.617Z,0.33
2022-12-23T01:55:45.813Z,0.10
2022-12-23T01:58:21.149Z,0.30
2022-12-23T02:01:08.165Z,0.10
2022-12-23T02:03:43.775Z,0.10
2022-12-23T02:06:39.549Z,0.17
2022-12-23T02:09:19.271Z,0.30
2022-12-23T02:12:24.956Z,0.10
2022-12-23T02:15:37.877Z,0.17
2022-12-23T02:18:32.887Z,0.00
2022-12-23T02:21:34.433Z,0.13
2022-12-23T02:24:41.118Z,0.20
2022-12-23T02:27:28.305Z,0.20
2022-12-23T02:30:31.449Z,0.10
2022-12-23T02:33:37.659Z,0.13
2022-12-23T02:36:21.720Z,0.40
2022-12-23T02:39:05.198Z,0.30
2022-12-23T02:41:43.612Z,0.20
2022-12-23T02:44:27.094Z,0.00
2022-12-23T02:47:04.381Z,0.00
2022-12-23T02:49:39.382Z,0.30
2022-12-23T02:52:15.290Z,0.10
2022-12-23T02:54:51.883Z,0.10
2022-12-23T02:57:27.286Z,0.20
2022-12-23T02:59:59.011Z,0.10
2022-12-23T03:02:29.905Z,0.00
2022-12-23T03:05:00.839Z,0.13
2022-12-23T03:07:36.833Z,0.10
2022-12-23T03:10:15.369Z,0.10
2022-12-23T03:12:59.384Z,0.30
2022-12-23T03:15:47.520Z,0.17
2022-12-23T03:18:34.734Z,0.03
2022-12-23T03:21:12.314Z,0.20
2022-12-23T03:23:55.454Z,0.00
2022-12-23T03:26:34.826Z,0.30
2022-12-23T03:29:13.712Z,0.40
2022-12-23T03:31:47.789Z,0.30
2022-12-23T03:34:27.746Z,0.30
2022-12-23T03:37:02.167Z,0.47
2022-12-23T03:39:35.796Z,0.40
2022-12-23T03:42:14.175Z,0.40
2022-12-23T03:45:11.095Z,0.60
2022-12-23T03:47:46.065Z,0.30
2022-12-23T03:50:20.656Z,0.43
2022-12-23T03:52:58.793Z,0.50
2022-12-23T03:55:35.193Z,0.30
2022-12-23T03:58:13.445Z,0.20
2022-12-23T04:00:52.214Z,0.20
2022-12-23T04:03:34.439Z,0.27
2022-12-23T04:06:12.535Z,0.30
2022-12-23T04:08:43.771Z,0.10
2022-12-23T04:11:13.226Z,0.40
2022-12-23T04:13:42.548Z,0.30
2022-12-23T04:16:11.603Z,0.40
2022-12-23T04:18:41.005Z,0.50
2022-12-23T04:21:10.837Z,0.30
2022-12-23T04:23:40.380Z,0.50
2022-12-23T04:26:09.456Z,0.40
2022-12-23T04:28:38.006Z,0.30
2022-12-23T04:31:06.730Z,0.40
2022-12-23T04:33:35.557Z,0.60
2022-12-23T04:36:04.116Z,0.30
2022-12-23T04:38:34.040Z,0.30
2022-12-23T04:41:03.005Z,0.30
2022-12-23T04:43:31.939Z,0.50
2022-12-23T04:46:00.505Z,0.40
2022-12-23T04:48:29.509Z,0.50
2022-12-23T04:50:58.219Z,0.33
2022-12-23T04:53:27.173Z,0.40
2022-12-23T04:55:57.268Z,0.40
2022-12-23T04:58:26.218Z,0.30
2022-12-23T05:01:04.406Z,0.40
2022-12-23T05:03:33.897Z,0.60
2022-12-23T05:06:03.031Z,0.30
2022-12-23T05:08:31.997Z,0.40
2022-12-23T05:11:02.308Z,0.53
2022-12-23T05:13:30.816Z,0.40
2022-12-23T05:15:59.543Z,0.83
2022-12-23T05:18:28.210Z,0.50
2022-12-23T05:20:57.559Z,0.27
2022-12-23T05:23:25.952Z,0.57
2022-12-23T05:25:56.181Z,0.23
2022-12-23T05:28:26.240Z,0.30
2022-12-23T05:31:01.003Z,0.50
2022-12-23T05:33:30.353Z,0.30
2022-12-23T05:36:00.226Z,0.47
2022-12-23T05:38:29.226Z,1.10
2022-12-23T05:40:58.760Z,0.40
2022-12-23T05:43:29.510Z,0.37
2022-12-23T05:45:58.110Z,0.40
2022-12-23T05:48:28.029Z,0.57
2022-12-23T05:50:56.563Z,1.60
2022-12-23T05:53:25.458Z,1.10
2022-12-23T05:55:53.926Z,0.60
2022-12-23T05:58:22.686Z,0.70
2022-12-23T06:00:52.872Z,0.60
2022-12-23T06:03:22.469Z,0.40
2022-12-23T06:05:52.716Z,0.30
2022-12-23T06:08:22.237Z,0.53
2022-12-23T06:10:51.161Z,2.50
2022-12-23T06:13:19.690Z,0.93
2022-12-23T06:15:49.218Z,0.80
2022-12-23T06:18:19.279Z,0.60
2022-12-23T06:20:48.827Z,0.70
2022-12-23T06:23:17.681Z,0.70
2022-12-23T06:25:46.224Z,0.87
2022-12-23T06:28:14.950Z,0.50
2022-12-23T06:30:43.397Z,0.80
2022-12-23T06:33:12.932Z,0.63
2022-12-23T06:35:44.591Z,0.83
2022-12-23T06:38:13.188Z,0.90
2022-12-23T06:40:41.829Z,0.90
2022-12-23T06:43:11.826Z,0.80
2022-12-23T06:45:40.347Z,0.50
2022-12-23T06:48:09.201Z,0.43
2022-12-23T06:50:38.215Z,0.70
2022-12-23T06:53:08.541Z,0.40
2022-12-23T06:55:37.789Z,0.63
2022-12-23T06:58:07.596Z,0.50
2022-12-23T07:00:36.961Z,0.50
2022-12-23T07:03:05.696Z,0.50
2022-12-23T07:05:37.531Z,0.67
2022-12-23T07:08:08.462Z,0.50
2022-12-23T07:10:37.136Z,0.60
2022-12-23T07:13:07.052Z,0.50
2022-12-23T07:15:36.271Z,0.37
2022-12-23T07:18:05.194Z,0.50
2022-12-23T07:20:34.655Z,0.70
2022-12-23T07:23:03.291Z,0.60
2022-12-23T07:25:33.572Z,0.33
2022-12-23T07:28:02.725Z,0.57
2022-12-23T07:30:31.545Z,0.67
2022-12-23T07:33:00.319Z,0.60
2022-12-23T07:35:30.008Z,0.50
2022-12-23T07:37:58.914Z,1.10
2022-12-23T07:40:28.221Z,0.50
2022-12-23T07:43:01.162Z,0.30
2022-12-23T07:45:31.500Z,0.40
2022-12-23T07:48:03.422Z,0.90
2022-12-23T07:51:10.887Z,0.50
2022-12-23T07:53:40.286Z,0.50
2022-12-23T07:56:09.834Z,0.30
2022-12-23T07:58:40.457Z,0.70
2022-12-23T08:01:09.457Z,0.27
2022-12-23T08:03:39.160Z,0.93
2022-12-23T08:06:12.547Z,0.30
2022-12-23T08:08:43.825Z,0.70
2022-12-23T08:11:14.947Z,0.20
2022-12-23T08:13:48.778Z,0.30
2022-12-23T08:16:17.321Z,0.10
2022-12-23T08:18:46.575Z,0.50
2022-12-23T08:21:19.191Z,1.17
2022-12-23T08:23:49.139Z,0.60
2022-12-23T08:26:21.250Z,0.50
2022-12-23T08:28:54.079Z,0.70
2022-12-23T08:31:26.153Z,1.37
2022-12-23T08:33:58.607Z,0.83
2022-12-23T08:36:30.275Z,1.90
2022-12-23T08:39:01.880Z,1.40
2022-12-23T08:41:35.958Z,1.33
2022-12-23T08:44:06.137Z,2.17
2022-12-23T08:46:35.835Z,0.80
2022-12-23T08:49:04.791Z,1.60
2022-12-23T08:51:33.892Z,2.40
2022-12-23T08:54:03.531Z,1.70
2022-12-23T08:56:35.594Z,2.50
2022-12-23T08:59:06.104Z,0.70
2022-12-23T09:01:36.473Z,1.20
2022-12-23T09:04:06.708Z,2.90
2022-12-23T09:06:40.793Z,2.07
2022-12-23T09:09:11.212Z,3.10
2022-12-23T09:11:40.217Z,1.27
2022-12-23T09:14:10.710Z,1.50
2022-12-23T09:16:39.812Z,1.27
2022-12-23T09:19:11.371Z,1.07
2022-12-23T09:21:40.219Z,3.07
2022-12-23T09:24:09.394Z,1.27
2022-12-23T09:26:37.927Z,2.10
2022-12-23T09:29:06.808Z,2.10
2022-12-23T09:31:38.181Z,1.50
2022-12-23T09:34:07.271Z,7.60
2022-12-23T09:36:35.933Z,2.40
2022-12-23T09:39:04.890Z,0.80
2022-12-23T09:42:02.537Z,1.57
2022-12-23T09:44:54.927Z,1.00
2022-12-23T09:47:29.365Z,1.70
2022-12-23T09:50:04.303Z,1.37
2022-12-23T09:52:44.860Z,0.90
2022-12-23T09:55:16.407Z,1.97
2022-12-23T09:57:58.760Z,1.73
2022-12-23T10:00:31.127Z,1.10
2022-12-23T10:03:22.277Z,1.20
2022-12-23T10:06:04.250Z,1.67
2022-12-23T10:08:39.449Z,1.10
2022-12-23T10:11:16.326Z,1.00
2022-12-23T10:13:50.790Z,0.90
2022-12-23T10:16:24.578Z,1.27
2022-12-23T10:19:02.183Z,1.30
2022-12-23T10:21:42.344Z,1.60
2022-12-23T10:24:25.147Z,1.60
2022-12-23T10:26:56.294Z,3.60
2022-12-23T10:29:28.018Z,3.97
2022-12-23T10:32:19.191Z,3.87
2022-12-23T10:35:01.110Z,2.80
2022-12-23T10:37:40.018Z,0.90
2022-12-23T10:40:22.663Z,1.60
2022-12-23T10:43:05.610Z,0.77
2022-12-23T10:45:49.567Z,1.10
2022-12-23T10:48:41.148Z,1.60
2022-12-23T10:51:21.412Z,1.47
2022-12-23T10:53:56.212Z,1.80
2022-12-23T10:56:26.055Z,1.10
2022-12-23T10:59:00.101Z,0.60
2022-12-23T11:01:31.242Z,1.70
2022-12-23T11:04:11.220Z,1.20
2022-12-23T11:06:47.280Z,0.80
2022-12-23T11:09:21.735Z,1.20
2022-12-23T11:12:00.350Z,0.90
2022-12-23T11:14:37.153Z,1.53
2022-12-23T11:17:19.815Z,1.27
2022-12-23T11:19:48.216Z,1.23
2022-12-23T11:22:27.045Z,2.07
2022-12-23T11:24:55.813Z,1.17
2022-12-23T11:27:24.406Z,1.20
2022-12-23T11:29:56.301Z,1.97
2022-12-23T11:32:30.195Z,1.03
2022-12-23T11:34:58.845Z,0.90
2022-12-23T11:37:37.725Z,0.50
2022-12-23T11:40:15.884Z,0.50
2022-12-23T11:42:46.148Z,0.80
2022-12-23T11:45:25.036Z,0.60
2022-12-23T11:47:53.924Z,0.60
2022-12-23T11:50:38.111Z,0.40
2022-12-23T11:53:20.747Z,0.60
2022-12-23T11:56:01.780Z,1.00
2022-12-23T11:58:37.065Z,0.50
2022-12-23T12:01:18.001Z,0.90
2022-12-23T12:03:55.095Z,0.80
2022-12-23T12:06:24.652Z,0.70
2022-12-23T12:08:59.172Z,0.73
2022-12-23T12:11:31.144Z,1.90
2022-12-23T12:14:04.698Z,2.67
2022-12-23T12:16:55.592Z,6.67
2022-12-23T12:19:29.480Z,6.17
2022-12-23T12:22:04.065Z,3.57
2022-12-23T12:24:42.902Z,3.60
2022-12-23T12:27:13.707Z,1.70
2022-12-23T12:29:49.900Z,4.50
2022-12-23T12:32:24.632Z,6.97
2022-12-23T12:35:01.188Z,1.07
2022-12-23T12:37:39.660Z,2.20
2022-12-23T12:40:24.664Z,0.60
2022-12-23T12:43:00.837Z,4.20
2022-12-23T12:45:41.259Z,1.30
2022-12-23T12:48:39.806Z,2.30
2022-12-23T12:51:22.228Z,0.93
2022-12-23T12:54:20.739Z,0.60
2022-12-23T12:56:55.188Z,1.73
2022-12-23T12:59:29.087Z,3.60
2022-12-23T13:02:29.471Z,1.50
2022-12-23T13:05:33.628Z,3.03
2022-12-23T13:08:34.199Z,0.67
2022-12-23T13:11:10.864Z,0.80
2022-12-23T13:13:55.549Z,1.30
2022-12-23T13:16:38.848Z,1.13
2022-12-23T13:19:26.345Z,0.80
2022-12-23T13:22:05.549Z,0.83
2022-12-23T13:24:48.671Z,0.93
2022-12-23T13:27:23.354Z,1.67
2022-12-23T13:30:07.019Z,1.10
2022-12-23T13:33:06.836Z,0.80
2022-12-23T13:36:06.369Z,1.03
2022-12-23T13:39:16.882Z,1.67
2022-12-23T13:41:50.375Z,1.27
2022-12-23T13:44:20.673Z,3.30
2022-12-23T13:47:07.939Z,1.27
2022-12-23T13:49:53.971Z,0.40
2022-12-23T13:52:41.609Z,0.40
2022-12-23T13:55:45.511Z,0.20
2022-12-23T13:58:19.351Z,0.30
2022-12-23T14:00:48.095Z,0.20
2022-12-23T14:03:26.339Z,0.67
2022-12-23T14:05:55.341Z,0.60
2022-12-23T14:08:43.351Z,0.40
2022-12-23T14:11:23.466Z,0.60
2022-12-23T14:14:00.339Z,1.77
2022-12-23T14:16:48.879Z,1.33
2022-12-23T14:19:53.073Z,1.50
2022-12-23T14:22:56.802Z,1.27
2022-12-23T14:25:51.372Z,0.80
2022-12-23T14:28:38.839Z,0.63
2022-12-23T14:31:07.774Z,1.40
2022-12-23T14:33:38.959Z,0.60
2022-12-23T14:36:25.263Z,0.20
2022-12-23T14:39:33.107Z,0.50
2022-12-23T14:42:06.787Z,1.40
2022-12-23T14:44:54.466Z,0.33
2022-12-23T14:47:40.636Z,1.07
2022-12-23T14:50:41.688Z,1.10
2022-12-23T14:53:27.634Z,1.30
2022-12-23T14:56:28.554Z,4.63
2022-12-23T14:59:17.679Z,5.17
2022-12-23T15:01:51.390Z,2.60
2022-12-23T15:04:26.339Z,1.77
2022-12-23T15:07:00.632Z,1.40
2022-12-23T15:09:36.879Z,2.27
2022-12-23T15:12:16.914Z,1.27
2022-12-23T15:14:52.331Z,0.90
2022-12-23T15:17:29.269Z,1.77
2022-12-23T15:20:14.026Z,1.00
2022-12-23T15:22:45.201Z,0.57
2022-12-23T15:25:25.304Z,0.80
2022-12-23T15:28:01.494Z,1.00
2022-12-23T15:30:37.214Z,2.23
2022-12-23T15:33:34.768Z,1.37
2022-12-23T15:35:58.637Z,0.77
2022-12-23T15:38:32.733Z,1.10
2022-12-23T15:41:05.480Z,1.23
2022-12-23T15:43:34.724Z,1.40
2022-12-23T15:46:11.048Z,1.67
2022-12-23T15:48:41.025Z,1.90
2022-12-23T15:51:25.841Z,2.10
2022-12-23T15:54:08.844Z,1.57
2022-12-23T15:56:41.949Z,1.03
2022-12-23T15:59:25.159Z,1.90
2022-12-23T16:01:55.325Z,1.80
2022-12-23T16:04:29.780Z,1.60
2022-12-23T16:07:05.189Z,2.70
2022-12-23T16:09:36.981Z,1.47
2022-12-23T16:12:27.409Z,2.40
2022-12-23T16:15:01.126Z,2.07
2022-12-23T16:17:34.688Z,4.93
2022-12-23T16:20:23.413Z,2.30
2022-12-23T16:22:55.396Z,2.57
2022-12-23T16:25:28.495Z,2.17
2022-12-23T16:28:00.754Z,2.20
2022-12-23T16:30:36.782Z,2.20
2022-12-23T16:33:08.552Z,1.30
2022-12-23T16:35:41.182Z,1.33
2022-12-23T16:38:17.986Z,4.30
2022-12-23T16:40:49.382Z,2.00
2022-12-23T16:43:20.584Z,2.40
2022-12-23T16:45:56.199Z,2.87
2022-12-23T16:48:33.661Z,1.40
2022-12-23T16:51:06.840Z,2.30
2022-12-23T16:53:35.577Z,1.20
2022-12-23T16:56:04.971Z,1.20
2022-12-23T16:58:35.750Z,1.00
2022-12-23T17:01:04.753Z,1.10
2022-12-23T17:03:33.783Z,1.30
2022-12-23T17:06:02.082Z,0.80
2022-12-23T17:08:30.924Z,0.90
2022-12-23T17:10:59.540Z,2.10
2022-12-23T17:13:28.606Z,0.60
2022-12-23T17:15:58.641Z,0.47
2022-12-23T17:18:26.996Z,0.80
2022-12-23T17:20:56.130Z,1.10
2022-12-23T17:23:29.894Z,0.93
2022-12-23T17:25:59.404Z,1.00
2022-12-23T17:28:33.532Z,0.50
2022-12-23T17:31:08.657Z,0.70
2022-12-23T17:33:41.040Z,1.23
2022-12-23T17:36:12.973Z,1.80
2022-12-23T17:38:41.849Z,0.87
2022-12-23T17:41:23.691Z,1.27
2022-12-23T17:43:52.012Z,2.40
2022-12-23T17:46:23.420Z,2.53
2022-12-23T17:48:52.814Z,5.90
2022-12-23T17:51:24.307Z,3.30
2022-12-23T17:53:57.643Z,3.37
2022-12-23T17:56:29.953Z,3.47
2022-12-23T17:58:59.785Z,1.47
2022-12-23T18:01:33.778Z,1.20
2022-12-23T18:04:02.524Z,1.60
2022-12-23T18:06:31.317Z,1.13
2022-12-23T18:08:59.705Z,0.97
2022-12-23T18:11:36.089Z,1.30
2022-12-23T18:14:05.872Z,1.00
2022-12-23T18:16:35.737Z,1.00
2022-12-23T18:19:04.809Z,0.87
2022-12-23T18:21:34.590Z,1.63
2022-12-23T18:24:03.193Z,1.93
2022-12-23T18:26:31.913Z,5.07
2022-12-23T18:29:00.895Z,1.00
2022-12-23T18:31:30.197Z,2.40
2022-12-23T18:34:00.802Z,1.97
2022-12-23T18:36:34.023Z,2.73
2022-12-23T18:39:27.417Z,2.30
2022-12-23T18:41:56.245Z,2.60
2022-12-23T18:44:24.949Z,2.00
2022-12-23T18:46:54.349Z,1.60
2022-12-23T18:49:24.515Z,1.50
2022-12-23T18:51:53.056Z,2.20
2022-12-23T18:54:21.978Z,1.40
2022-12-23T18:56:50.919Z,1.30
2022-12-23T18:59:29.359Z,1.10
2022-12-23T19:01:59.614Z,1.63
2022-12-23T19:04:30.034Z,2.33
2022-12-23T19:06:59.520Z,1.30
2022-12-23T19:12:19.433Z,1.10
2022-12-23T19:14:48.503Z,1.00
2022-12-23T19:17:17.691Z,1.23
2022-12-23T19:19:48.674Z,1.47
2022-12-23T19:22:17.114Z,0.77
2022-12-23T19:25:03.837Z,1.17
2022-12-23T19:27:34.629Z,1.80
2022-12-23T19:30:04.495Z,1.60
2022-12-23T19:32:32.983Z,1.30
2022-12-23T19:35:03.503Z,1.83
2022-12-23T19:37:33.522Z,1.90
2022-12-23T19:40:02.695Z,3.17
2022-12-23T19:42:31.790Z,1.40
2022-12-23T19:45:00.793Z,2.77
2022-12-23T19:47:30.036Z,0.97
2022-12-23T19:49:58.636Z,1.40
2022-12-23T19:52:29.000Z,1.10
2022-12-23T19:54:57.630Z,1.40
2022-12-23T19:57:26.516Z,2.00
2022-12-23T19:59:55.628Z,2.00
2022-12-23T20:02:24.654Z,2.43
2022-12-23T20:04:53.713Z,2.50
2022-12-23T20:07:22.503Z,1.70
2022-12-23T20:09:55.404Z,1.37
2022-12-23T20:12:26.841Z,1.70
2022-12-23T20:14:55.863Z,2.27
2022-12-23T20:17:24.597Z,1.13
2022-12-23T20:19:53.510Z,1.60
2022-12-23T20:22:22.086Z,2.30
2022-12-23T20:24:52.779Z,2.77
2022-12-23T20:27:27.668Z,1.90
2022-12-23T20:29:57.463Z,2.83
2022-12-23T20:32:26.581Z,2.30
2022-12-23T20:34:55.148Z,2.53
2022-12-23T20:37:23.702Z,2.93
2022-12-23T20:39:53.812Z,2.07
2022-12-23T20:42:22.625Z,2.70
2022-12-23T20:44:51.876Z,2.50
2022-12-23T20:47:21.333Z,2.30
2022-12-23T20:49:49.969Z,2.00
2022-12-23T20:52:18.625Z,1.90
2022-12-23T20:54:47.322Z,1.73
2022-12-23T20:57:17.490Z,1.50
2022-12-23T20:59:45.952Z,2.00
2022-12-23T21:02:15.538Z,2.37
2022-12-23T21:04:46.192Z,4.10
2022-12-23T21:07:14.769Z,2.27
2022-12-23T21:09:43.259Z,2.43
2022-12-23T21:12:12.041Z,1.93
2022-12-23T21:14:41.951Z,2.40
2022-12-23T21:17:10.987Z,2.03
2022-12-23T21:19:39.756Z,2.27
2022-12-23T21:22:08.843Z,1.90
2022-12-23T21:24:37.766Z,1.47
2022-12-23T21:27:06.419Z,3.50
2022-12-23T21:29:35.552Z,1.57
2022-12-23T21:32:05.863Z,1.73
2022-12-23T21:34:34.680Z,2.30
2022-12-23T21:37:03.160Z,2.83
2022-12-23T21:39:32.132Z,2.40
2022-12-23T21:42:00.625Z,3.30
2022-12-23T21:44:29.337Z,3.27
2022-12-23T21:46:57.942Z,3.43
2022-12-23T21:49:28.109Z,2.70
2022-12-23T21:51:57.265Z,2.30
2022-12-23T21:54:25.919Z,2.50
2022-12-23T21:56:54.416Z,2.50
2022-12-23T21:59:25.448Z,1.90
2022-12-23T22:01:56.721Z,2.10
2022-12-23T22:04:27.194Z,2.33
2022-12-23T22:06:55.722Z,3.13
2022-12-23T22:09:24.325Z,2.77
2022-12-23T22:11:52.747Z,2.30
2022-12-23T22:14:21.364Z,2.93
2022-12-23T22:16:51.306Z,2.10
2022-12-23T22:19:20.073Z,4.03
2022-12-23T22:21:49.875Z,3.10
2022-12-23T22:24:18.355Z,6.40
2022-12-23T22:26:47.084Z,5.10
2022-12-23T22:29:15.606Z,5.13
2022-12-23T22:31:48.721Z,2.47
2022-12-23T22:34:21.494Z,2.23
2022-12-23T22:36:51.488Z,2.20
2022-12-23T22:39:22.319Z,3.17
2022-12-23T22:41:52.556Z,2.33
2022-12-23T22:44:21.948Z,2.30
2022-12-23T22:46:51.815Z,2.67
2022-12-23T22:49:21.097Z,2.23
2022-12-23T22:51:51.410Z,2.60
2022-12-23T22:54:19.936Z,2.50
2022-12-23T22:56:48.428Z,2.27
2022-12-23T22:59:22.702Z,2.07
2022-12-23T23:01:53.167Z,2.00
2022-12-23T23:04:22.204Z,2.70
2022-12-23T23:06:53.032Z,2.00
2022-12-23T23:09:23.809Z,3.17
2022-12-23T23:11:53.216Z,2.37
2022-12-23T23:14:22.266Z,2.93
2022-12-23T23:16:51.118Z,1.73
2022-12-23T23:19:20.717Z,2.17
2022-12-23T23:21:50.035Z,2.37
2022-12-23T23:24:20.450Z,2.37
2022-12-23T23:26:48.913Z,2.63
2022-12-23T23:29:17.831Z,3.27
2022-12-23T23:31:46.606Z,2.30
2022-12-23T23:34:15.318Z,2.37
2022-12-23T23:36:44.256Z,2.77
2022-12-23T23:39:13.981Z,2.97
2022-12-23T23:41:44.029Z,2.10
2022-12-23T23:44:13.092Z,2.70
2022-12-23T23:46:41.993Z,2.13
2022-12-23T23:49:10.762Z,2.17
2022-12-23T23:51:40.343Z,2.67
2022-12-23T23:54:10.483Z,1.90
2022-12-23T23:56:39.701Z,2.17
2022-12-23T23:59:10.929Z,2.17
